GIA860 WIII-VHHH
Flight info
| Callsign | GIA860 |
|---|---|
| Flight time | N/A |
| Altitude | 36000 |
| Route | AMBOY P648 BUKTU M772 DULOP Q1 CARSO V551 BETTY |
| Aircraft | A333/H-SDE3GHIJ2J3J5M1RVWXY/LB2D1 |
Departure
| Time | 2026-05-06 04:57 |
|---|---|
| Airport | Soekarno-Hatta International Airport (WIII) |
Arrival
| Time | N/A |
|---|---|
| Airport | Hong Kong International Airport (VHHH) |
| Time | Latitude | Longitude | Altitude | Speed | Heading |
|---|---|---|---|---|---|
| 2026-05-06 04:14 | -6.11724 | 106.66526 | 41 ft | 0 kts | 159° |
| 2026-05-06 04:21 | -6.11723 | 106.66526 | 41 ft | 0 kts | 159° |
| 2026-05-06 04:41 | -6.11715 | 106.66523 | 41 ft | 4 kts | 159° |
| 2026-05-06 04:41 | -6.11689 | 106.66514 | 39 ft | 4 kts | 162° |
| 2026-05-06 04:41 | -6.11663 | 106.66506 | 37 ft | 4 kts | 162° |
| 2026-05-06 04:41 | -6.11640 | 106.66499 | 38 ft | 4 kts | 178° |
| 2026-05-06 04:42 | -6.11620 | 106.66506 | 37 ft | 4 kts | 242° |
| 2026-05-06 04:42 | -6.11611 | 106.66529 | 41 ft | 2 kts | 250° |
| 2026-05-06 04:42 | -6.11609 | 106.66534 | 41 ft | 0 kts | 250° |
| 2026-05-06 04:47 | -6.11610 | 106.66533 | 41 ft | 1 kts | 250° |
| 2026-05-06 04:48 | -6.11612 | 106.66527 | 41 ft | 2 kts | 250° |
| 2026-05-06 04:48 | -6.11619 | 106.66507 | 37 ft | 4 kts | 249° |
| 2026-05-06 04:48 | -6.11632 | 106.66472 | 39 ft | 6 kts | 249° |
| 2026-05-06 04:48 | -6.11626 | 106.66412 | 41 ft | 7 kts | 306° |
| 2026-05-06 04:49 | -6.11582 | 106.66383 | 41 ft | 8 kts | 335° |
| 2026-05-06 04:49 | -6.11525 | 106.66358 | 41 ft | 10 kts | 338° |
| 2026-05-06 04:49 | -6.11482 | 106.66341 | 41 ft | 10 kts | 339° |
| 2026-05-06 04:49 | -6.11410 | 106.66314 | 41 ft | 12 kts | 338° |
| 2026-05-06 04:50 | -6.11352 | 106.66260 | 41 ft | 11 kts | 283° |
| 2026-05-06 04:50 | -6.11370 | 106.66185 | 41 ft | 12 kts | 249° |
| 2026-05-06 04:50 | -6.11402 | 106.66103 | 41 ft | 13 kts | 249° |
| 2026-05-06 04:50 | -6.11438 | 106.66011 | 41 ft | 15 kts | 249° |
| 2026-05-06 04:51 | -6.11479 | 106.65908 | 41 ft | 17 kts | 248° |
| 2026-05-06 04:51 | -6.11523 | 106.65795 | 41 ft | 18 kts | 248° |
| 2026-05-06 04:51 | -6.11572 | 106.65676 | 41 ft | 19 kts | 248° |
| 2026-05-06 04:51 | -6.11623 | 106.65548 | 41 ft | 20 kts | 248° |
| 2026-05-06 04:52 | -6.11677 | 106.65414 | 41 ft | 21 kts | 248° |
| 2026-05-06 04:52 | -6.11732 | 106.65274 | 42 ft | 22 kts | 249° |
| 2026-05-06 04:52 | -6.11789 | 106.65127 | 42 ft | 23 kts | 249° |
| 2026-05-06 04:52 | -6.11851 | 106.64976 | 42 ft | 24 kts | 248° |
| 2026-05-06 04:53 | -6.11913 | 106.64818 | 42 ft | 25 kts | 248° |
| 2026-05-06 04:53 | -6.11978 | 106.64657 | 42 ft | 25 kts | 247° |
| 2026-05-06 04:53 | -6.12045 | 106.64489 | 40 ft | 26 kts | 248° |
| 2026-05-06 04:53 | -6.12114 | 106.64316 | 42 ft | 27 kts | 248° |
| 2026-05-06 04:54 | -6.12186 | 106.64138 | 41 ft | 28 kts | 247° |
| 2026-05-06 04:54 | -6.12251 | 106.63965 | 42 ft | 23 kts | 262° |
| 2026-05-06 04:54 | -6.12201 | 106.63887 | 43 ft | 0 kts | 341° |
| 2026-05-06 04:55 | -6.12196 | 106.63885 | 43 ft | 2 kts | 341° |
| 2026-05-06 04:55 | -6.12179 | 106.63882 | 43 ft | 4 kts | 357° |
| 2026-05-06 04:55 | -6.12145 | 106.63891 | 43 ft | 6 kts | 18° |
| 2026-05-06 04:55 | -6.12095 | 106.63910 | 42 ft | 8 kts | 30° |
| 2026-05-06 04:56 | -6.12063 | 106.63951 | 41 ft | 0 kts | 69° |
| 2026-05-06 04:56 | -6.12059 | 106.63964 | 41 ft | 11 kts | 69° |
| 2026-05-06 04:57 | -6.11951 | 106.64237 | 41 ft | 74 kts | 68° |
| 2026-05-06 04:57 | -6.11683 | 106.64907 | 45 ft | 131 kts | 68° |
| 2026-05-06 04:57 | -6.11272 | 106.65914 | 118 ft | 175 kts | 68° |
| 2026-05-06 04:57 | -6.10844 | 106.67058 | 796 ft | 174 kts | 69° |
| 2026-05-06 04:58 | -6.10379 | 106.68153 | 1439 ft | 177 kts | 59° |
| 2026-05-06 04:58 | -6.09494 | 106.69136 | 1784 ft | 201 kts | 46° |
| 2026-05-06 04:58 | -6.08425 | 106.70177 | 2084 ft | 227 kts | 46° |
| 2026-05-06 04:58 | -6.07240 | 106.71336 | 2472 ft | 244 kts | 46° |
| 2026-05-06 04:59 | -6.06003 | 106.72579 | 2945 ft | 257 kts | 46° |
| 2026-05-06 04:59 | -6.04734 | 106.73879 | 3649 ft | 262 kts | 47° |
| 2026-05-06 04:59 | -6.03469 | 106.75186 | 4412 ft | 265 kts | 47° |
| 2026-05-06 04:59 | -6.02167 | 106.76538 | 5196 ft | 267 kts | 47° |
| 2026-05-06 05:00 | -6.00887 | 106.77872 | 5979 ft | 270 kts | 47° |
| 2026-05-06 05:00 | -5.99576 | 106.79241 | 6733 ft | 273 kts | 47° |
| 2026-05-06 05:00 | -5.98253 | 106.80623 | 7490 ft | 276 kts | 47° |
| 2026-05-06 05:00 | -5.96910 | 106.82026 | 8285 ft | 279 kts | 48° |
| 2026-05-06 05:01 | -5.95720 | 106.83576 | 9097 ft | 280 kts | 60° |
| 2026-05-06 05:01 | -5.94746 | 106.85280 | 9885 ft | 283 kts | 62° |
| 2026-05-06 05:01 | -5.93794 | 106.87035 | 10329 ft | 299 kts | 63° |
| 2026-05-06 05:01 | -5.92767 | 106.88935 | 10599 ft | 319 kts | 62° |
| 2026-05-06 05:02 | -5.91619 | 106.90917 | 10923 ft | 336 kts | 56° |
| 2026-05-06 05:02 | -5.90050 | 106.92693 | 11480 ft | 345 kts | 43° |
| 2026-05-06 05:02 | -5.88159 | 106.94214 | 12136 ft | 350 kts | 38° |
| 2026-05-06 05:02 | -5.86177 | 106.95663 | 12792 ft | 354 kts | 37° |
| 2026-05-06 05:03 | -5.84155 | 106.97102 | 13465 ft | 359 kts | 37° |
| 2026-05-06 05:03 | -5.82102 | 106.98552 | 14072 ft | 362 kts | 37° |
| 2026-05-06 05:03 | -5.80032 | 107.00009 | 14688 ft | 365 kts | 36° |
| 2026-05-06 05:03 | -5.77937 | 107.01481 | 15305 ft | 367 kts | 36° |
| 2026-05-06 05:04 | -5.75837 | 107.02956 | 15910 ft | 370 kts | 36° |
| 2026-05-06 05:04 | -5.73715 | 107.04446 | 16506 ft | 373 kts | 36° |
| 2026-05-06 05:04 | -5.71580 | 107.05944 | 17096 ft | 377 kts | 36° |
| 2026-05-06 05:04 | -5.69419 | 107.07461 | 17698 ft | 379 kts | 36° |
| 2026-05-06 05:05 | -5.67246 | 107.08985 | 18236 ft | 383 kts | 35° |
| 2026-05-06 05:05 | -5.65051 | 107.10525 | 18715 ft | 386 kts | 36° |
| 2026-05-06 05:05 | -5.62844 | 107.12074 | 19183 ft | 389 kts | 35° |
| 2026-05-06 05:05 | -5.60615 | 107.13637 | 19646 ft | 392 kts | 36° |
| 2026-05-06 05:06 | -5.58373 | 107.15210 | 20098 ft | 395 kts | 36° |
| 2026-05-06 05:06 | -5.56140 | 107.16776 | 20540 ft | 398 kts | 36° |
| 2026-05-06 05:06 | -5.53862 | 107.18374 | 20984 ft | 401 kts | 36° |